Portada
METAR-TAF:

METAR-TAF

Aeropuertos :

Honiara, Guadalcanal, Islas Salomón

Aeropuerto Internacional de Honiara

latitud: 09-25S, longitud: 160-03E, altitud: 8 m

Observación

El informe se hizo hace 52 minutos, a las 01:00 UTC
Viento 4 kt del noreste
Temperatura 30°C
Humedad 75%
Presión 1010 hPa
Visibilidad 10 km o más
Escasas nubes a una altura de 2000 ft
Escasas nubes a una altura de 2000 ft, Cumulonimbus.
Cielo nuboso a una altura de 32000 ft
calima

METAR: AGGH 280100Z 05004KT 9999 HZ FEW020 FEW020CB BKN320 30/25 Q1010

Hora: 12:52 (01:52 UTC)

Pronóstico

El informe se hizo hace 2 horas y 37 minutos, a las 23:15 UTC
Pronóstico válido del 28 a las 00 UTC al 28 a las 24 UTC
Viento 6 kt del sur
Visibilidad: 1012 m
Escasas nubes a una altura de 1800 ft
Nubes dispersas a una altura de 3000 ft
Cielo nuboso a una altura de 10000 ft
(leve) chubascos, llovizna

TAF: AGGH 272315Z 2800/2824 18006KT 9999 -SHDZ FEW018 SCT030 BKN100 T 29 30 28 27 Q 1012 1011 1011 1012

Observaciones y pronósticos meteorológicos de más de 4000 aeropuertos (mensajes METAR y TAF).

Los puntos amarillos y rojos representan las estaciones disponibles.

Ponga el ratón en el punto deseado para ver el nombre de la estación.

Haga clic para ver las observaciones y los pronósticos meteorológicos.

Para cambiar el mapa : haga clic en los botones verdes con una cruz de color negro para hacer un zoom, en el botón verde con un guión para alejar o en las flechas verdes para mapas adyacentes.


METAR-TAF: